Time,TemperatureF,DewpointF,PressureIn,WindDirection,WindDirectionDegrees,WindSpeedMPH,WindSpeedGustMPH,Humidity,HourlyPrecipIn,Conditions,Clouds,dailyrainin,SoftwareType,DateUTC
2013-02-25 00:06:00,-999.0,-99.9,30.16,North,-999,-999.0,-999.0,-999,-99.99,,,0.00,weatherlink.com 1.10,2013-02-25 06:06:00,
2013-02-25 00:21:00,-999.0,-99.9,30.16,North,-999,-999.0,-999.0,-999,-99.99,,,0.00,weatherlink.com 1.10,2013-02-25 06:21:00,
2013-02-25 00:39:00,-999.0,-99.9,30.16,North,-999,-999.0,-999.0,-999,-99.99,,,0.00,weatherlink.com 1.10,2013-02-25 06:39:00,
2013-02-25 00:51:00,-999.0,-99.9,30.16,North,-999,-999.0,-999.0,-999,-99.99,,,0.00,weatherlink.com 1.10,2013-02-25 06:51:00,
2013-02-25 01:06:00,-999.0,-99.9,30.15,North,-999,-999.0,-999.0,-999,-99.99,,,0.00,weatherlink.com 1.10,2013-02-25 07:06:00,
2013-02-25 01:21:00,-999.0,-99.9,30.16,North,-999,-999.0,-999.0,-999,-99.99,,,0.00,weatherlink.com 1.10,2013-02-25 07:21:00,
2013-02-25 01:39:00,-999.0,-99.9,30.17,North,-999,-999.0,-999.0,-999,-99.99,,,0.00,weatherlink.com 1.10,2013-02-25 07:39:00,
2013-02-25 01:52:00,-999.0,-99.9,30.17,North,-999,-999.0,-999.0,-999,-99.99,,,0.00,weatherlink.com 1.10,2013-02-25 07:52:00,
2013-02-25 02:07:00,-999.0,-99.9,30.17,North,-999,-999.0,-999.0,-999,-99.99,,,0.00,weatherlink.com 1.10,2013-02-25 08:07:00,
2013-02-25 02:22:00,-999.0,-99.9,30.16,North,-999,-999.0,-999.0,-999,-99.99,,,0.00,weatherlink.com 1.10,2013-02-25 08:22:00,
2013-02-25 02:39:00,-999.0,-99.9,30.16,North,-999,-999.0,-999.0,-999,-99.99,,,0.00,weatherlink.com 1.10,2013-02-25 08:39:00,
2013-02-25 02:52:00,-999.0,-99.9,30.15,North,-999,-999.0,-999.0,-999,-99.99,,,0.00,weatherlink.com 1.10,2013-02-25 08:52:00,
2013-02-25 03:07:00,-999.0,-99.9,30.14,North,-999,-999.0,-999.0,-999,-99.99,,,0.00,weatherlink.com 1.10,2013-02-25 09:07:00,
2013-02-25 03:22:00,-999.0,-99.9,30.13,North,-999,-999.0,-999.0,-999,-99.99,,,0.00,weatherlink.com 1.10,2013-02-25 09:22:00,
2013-02-25 03:39:00,-999.0,-99.9,30.14,North,-999,-999.0,-999.0,-999,-99.99,,,0.00,weatherlink.com 1.10,2013-02-25 09:39:00,
2013-02-25 03:52:00,-999.0,-99.9,30.16,North,-999,-999.0,-999.0,-999,-99.99,,,0.00,weatherlink.com 1.10,2013-02-25 09:52:00,
2013-02-25 04:07:00,-999.0,-99.9,30.15,North,-999,-999.0,-999.0,-999,-99.99,,,0.00,weatherlink.com 1.10,2013-02-25 10:07:00,
2013-02-25 04:22:00,-999.0,-99.9,30.15,North,-999,-999.0,-999.0,-999,-99.99,,,0.00,weatherlink.com 1.10,2013-02-25 10:22:00,
2013-02-25 04:38:00,-999.0,-99.9,30.14,North,-999,-999.0,-999.0,-999,-99.99,,,0.00,weatherlink.com 1.10,2013-02-25 10:38:00,
2013-02-25 04:53:00,-999.0,-99.9,30.14,North,-999,-999.0,-999.0,-999,-99.99,,,0.00,weatherlink.com 1.10,2013-02-25 10:53:00,
2013-02-25 05:08:00,-999.0,-99.9,30.14,North,-999,-999.0,-999.0,-999,-99.99,,,0.00,weatherlink.com 1.10,2013-02-25 11:08:00,
2013-02-25 05:23:00,-999.0,-99.9,30.14,North,-999,-999.0,-999.0,-999,-99.99,,,0.00,weatherlink.com 1.10,2013-02-25 11:23:00,
2013-02-25 05:39:00,-999.0,-99.9,30.15,North,-999,-999.0,-999.0,-999,-99.99,,,0.00,weatherlink.com 1.10,2013-02-25 11:39:00,
2013-02-25 05:53:00,-999.0,-99.9,30.14,North,-999,-999.0,-999.0,-999,-99.99,,,0.00,weatherlink.com 1.10,2013-02-25 11:53:00,
2013-02-25 06:08:00,-999.0,-99.9,30.14,North,-999,-999.0,-999.0,-999,-99.99,,,0.00,weatherlink.com 1.10,2013-02-25 12:08:00,
2013-02-25 06:23:00,-999.0,-99.9,30.14,North,-999,-999.0,-999.0,-999,-99.99,,,0.00,weatherlink.com 1.10,2013-02-25 12:23:00,
2013-02-25 06:39:00,-999.0,-99.9,30.14,North,-999,-999.0,-999.0,-999,-99.99,,,0.00,weatherlink.com 1.10,2013-02-25 12:39:00,
2013-02-25 06:53:00,-999.0,-99.9,30.14,North,-999,-999.0,-999.0,-999,-99.99,,,0.00,weatherlink.com 1.10,2013-02-25 12:53:00,
2013-02-25 07:08:00,-999.0,-99.9,30.14,North,-999,-999.0,-999.0,-999,-99.99,,,0.00,weatherlink.com 1.10,2013-02-25 13:08:00,
2013-02-25 07:23:00,-999.0,-99.9,30.14,North,-999,-999.0,-999.0,-999,-99.99,,,0.00,weatherlink.com 1.10,2013-02-25 13:23:00,
2013-02-25 07:38:00,-999.0,-99.9,30.15,North,-999,-999.0,-999.0,-999,-99.99,,,0.00,weatherlink.com 1.10,2013-02-25 13:38:00,
2013-02-25 07:53:00,29.2,26.0,30.16,ENE,69,0.0,-999.0,86,-99.99,,,0.00,weatherlink.com 1.10,2013-02-25 13:53:00,
2013-02-25 08:09:00,29.6,26.0,30.17,ENE,69,2.0,-999.0,86,-99.99,,,0.00,weatherlink.com 1.10,2013-02-25 14:09:00,
2013-02-25 08:24:00,29.8,26.0,30.17,ENE,63,0.0,-999.0,85,-99.99,,,0.00,weatherlink.com 1.10,2013-02-25 14:24:00,
2013-02-25 08:39:00,30.7,26.0,30.16,ENE,63,1.0,-999.0,84,-99.99,,,0.00,weatherlink.com 1.10,2013-02-25 14:39:00,
2013-02-25 08:54:00,31.1,27.0,30.15,ENE,63,0.0,-999.0,84,-99.99,,,0.00,weatherlink.com 1.10,2013-02-25 14:54:00,
2013-02-25 09:09:00,31.5,27.0,30.15,ENE,63,2.0,-999.0,83,-99.99,,,0.00,weatherlink.com 1.10,2013-02-25 15:09:00,
2013-02-25 09:24:00,32.3,27.0,30.15,ENE,63,0.0,-999.0,82,-99.99,,,0.00,weatherlink.com 1.10,2013-02-25 15:24:00,
2013-02-25 09:39:00,33.4,28.0,30.15,ENE,63,0.0,-999.0,80,-99.99,,,0.00,weatherlink.com 1.10,2013-02-25 15:39:00,
2013-02-25 09:53:00,34.6,28.0,30.16,ENE,63,0.0,-999.0,77,-99.99,,,0.00,weatherlink.com 1.10,2013-02-25 15:53:00,
2013-02-25 10:08:00,35.6,28.0,30.16,ENE,63,0.0,-999.0,75,-99.99,,,0.00,weatherlink.com 1.10,2013-02-25 16:08:00,
2013-02-25 10:23:00,36.2,28.0,30.15,NE,40,0.0,-999.0,73,-99.99,,,0.00,weatherlink.com 1.10,2013-02-25 16:23:00,
2013-02-25 10:39:00,36.3,29.0,30.14,NNE,18,0.0,-999.0,75,-99.99,,,0.00,weatherlink.com 1.10,2013-02-25 16:39:00,
2013-02-25 10:54:00,36.4,29.0,30.14,NNE,19,0.0,-999.0,75,-99.99,,,0.00,weatherlink.com 1.10,2013-02-25 16:54:00,
2013-02-25 11:09:00,36.7,30.0,30.15,NNE,20,0.0,-999.0,76,-99.99,,,0.00,weatherlink.com 1.10,2013-02-25 17:09:00,
2013-02-25 11:24:00,37.3,30.0,30.15,NNE,21,0.0,-999.0,75,-99.99,,,0.00,weatherlink.com 1.10,2013-02-25 17:24:00,
2013-02-25 11:39:00,38.0,31.0,30.15,NNE,21,0.0,-999.0,75,-99.99,,,0.00,weatherlink.com 1.10,2013-02-25 17:39:00,
2013-02-25 11:54:00,38.5,31.0,30.15,NNE,21,0.0,-999.0,74,-99.99,,,0.00,weatherlink.com 1.10,2013-02-25 17:54:00,
2013-02-25 12:09:00,38.8,32.0,30.13,NNE,21,0.0,-999.0,75,-99.99,,,0.00,weatherlink.com 1.10,2013-02-25 18:09:00,
2013-02-25 12:24:00,39.5,32.0,30.13,NE,48,0.0,-999.0,74,-99.99,,,0.00,weatherlink.com 1.10,2013-02-25 18:24:00,
2013-02-25 12:39:00,40.0,32.0,30.12,NE,42,2.0,-999.0,74,-99.99,,,0.00,weatherlink.com 1.10,2013-02-25 18:39:00,
2013-02-25 12:54:00,40.3,32.0,30.11,NE,35,0.0,-999.0,73,-99.99,,,0.00,weatherlink.com 1.10,2013-02-25 18:54:00,
2013-02-25 13:09:00,40.5,32.0,30.11,NE,42,2.0,-999.0,73,-99.99,,,0.00,weatherlink.com 1.10,2013-02-25 19:09:00,
2013-02-25 13:24:00,40.7,33.0,30.09,NE,49,2.0,-999.0,73,-99.99,,,0.00,weatherlink.com 1.10,2013-02-25 19:24:00,
2013-02-25 13:40:00,41.1,33.0,30.09,NE,51,0.0,-999.0,74,-99.99,,,0.00,weatherlink.com 1.10,2013-02-25 19:40:00,
2013-02-25 13:55:00,41.3,33.0,30.08,East,81,0.0,-999.0,72,-99.99,,,0.00,weatherlink.com 1.10,2013-02-25 19:55:00,
2013-02-25 14:10:00,40.7,32.0,30.08,NE,51,0.0,-999.0,71,-99.99,,,0.00,weatherlink.com 1.10,2013-02-25 20:10:00,
2013-02-25 14:25:00,40.3,33.0,30.07,NE,53,1.0,-999.0,74,-99.99,,,0.00,weatherlink.com 1.10,2013-02-25 20:25:00,
2013-02-25 14:40:00,39.8,32.0,30.07,NE,46,1.0,-999.0,75,-99.99,,,0.00,weatherlink.com 1.10,2013-02-25 20:40:00,
2013-02-25 14:55:00,39.4,33.0,30.07,NE,46,1.0,-999.0,77,-99.99,,,0.00,weatherlink.com 1.10,2013-02-25 20:55:00,
2013-02-25 15:10:00,39.5,33.0,30.07,NE,46,3.0,-999.0,77,-99.99,,,0.00,weatherlink.com 1.10,2013-02-25 21:10:00,
2013-02-25 15:25:00,39.7,33.0,30.07,NE,46,1.0,-999.0,78,-99.99,,,0.00,weatherlink.com 1.10,2013-02-25 21:25:00,
2013-02-25 15:41:00,39.6,33.0,30.07,NE,46,1.0,-999.0,77,-99.99,,,0.00,weatherlink.com 1.10,2013-02-25 21:41:00,
2013-02-25 15:56:00,39.1,32.0,30.06,NE,46,2.0,-999.0,77,-99.99,,,0.00,weatherlink.com 1.10,2013-02-25 21:56:00,
2013-02-25 16:11:00,38.8,33.0,30.06,NE,46,0.0,-999.0,79,-99.99,,,0.00,weatherlink.com 1.10,2013-02-25 22:11:00,
2013-02-25 16:25:00,38.6,32.0,30.05,NE,45,1.0,-999.0,78,-99.99,,,0.00,weatherlink.com 1.10,2013-02-25 22:25:00,
2013-02-25 16:41:00,38.2,32.0,30.05,NE,45,1.0,-999.0,78,-99.99,,,0.00,weatherlink.com 1.10,2013-02-25 22:41:00,
2013-02-25 16:56:00,37.7,32.0,30.05,NE,45,1.0,-999.0,80,-99.99,,,0.00,weatherlink.com 1.10,2013-02-25 22:56:00,
2013-02-25 17:11:00,37.1,32.0,30.04,NE,45,2.0,-999.0,82,-99.99,,,0.00,weatherlink.com 1.10,2013-02-25 23:11:00,
2013-02-25 17:26:00,36.6,32.0,30.05,NE,45,0.0,-999.0,83,-99.99,,,0.00,weatherlink.com 1.10,2013-02-25 23:26:00,
2013-02-25 17:41:00,36.1,32.0,30.05,NE,45,0.0,-999.0,84,-99.99,,,0.00,weatherlink.com 1.10,2013-02-25 23:41:00,
2013-02-25 17:56:00,35.7,32.0,30.05,NE,45,0.0,-999.0,85,-99.99,,,0.00,weatherlink.com 1.10,2013-02-25 23:56:00,
2013-02-25 18:11:00,35.2,31.0,30.05,NE,45,0.0,-999.0,85,-99.99,,,0.00,weatherlink.com 1.10,2013-02-26 00:11:00,
2013-02-25 18:26:00,35.0,31.0,30.05,NE,45,0.0,-999.0,86,-99.99,,,0.00,weatherlink.com 1.10,2013-02-26 00:26:00,
2013-02-25 18:41:00,34.8,31.0,30.05,NE,45,0.0,-999.0,86,-99.99,,,0.00,weatherlink.com 1.10,2013-02-26 00:41:00,
2013-02-25 18:56:00,34.8,31.0,30.04,NE,45,0.0,-999.0,86,-99.99,,,0.00,weatherlink.com 1.10,2013-02-26 00:56:00,
2013-02-25 19:11:00,34.6,31.0,30.04,NE,45,1.0,-999.0,87,-99.99,,,0.00,weatherlink.com 1.10,2013-02-26 01:11:00,
2013-02-25 19:26:00,34.3,31.0,30.04,NE,45,0.0,-999.0,87,-99.99,,,0.00,weatherlink.com 1.10,2013-02-26 01:26:00,
2013-02-25 19:42:00,34.3,31.0,30.03,NE,45,2.0,-999.0,87,-99.99,,,0.00,weatherlink.com 1.10,2013-02-26 01:42:00,
2013-02-25 19:57:00,34.1,31.0,30.03,NE,45,1.0,-999.0,88,-99.99,,,0.00,weatherlink.com 1.10,2013-02-26 01:57:00,
2013-02-25 20:12:00,34.2,31.0,30.01,NE,34,1.0,-999.0,88,-99.99,,,0.00,weatherlink.com 1.10,2013-02-26 02:12:00,
2013-02-25 20:26:00,34.1,31.0,30.00,NNE,27,3.0,-999.0,87,-99.99,,,0.00,weatherlink.com 1.10,2013-02-26 02:26:00,
2013-02-25 20:42:00,33.9,31.0,29.99,NNE,25,2.0,-999.0,87,-99.99,,,0.00,weatherlink.com 1.10,2013-02-26 02:42:00,
2013-02-25 20:57:00,33.7,30.0,30.01,NNE,25,3.0,-999.0,87,-99.99,,,0.00,weatherlink.com 1.10,2013-02-26 02:57:00,
2013-02-25 21:12:00,33.8,30.0,30.00,NNE,27,4.0,-999.0,87,-99.99,,,0.00,weatherlink.com 1.10,2013-02-26 03:12:00,
2013-02-25 21:27:00,33.8,30.0,29.99,NNE,23,5.0,-999.0,86,-99.99,,,0.00,weatherlink.com 1.10,2013-02-26 03:27:00,
2013-02-25 21:42:00,33.8,30.0,29.98,NNE,30,3.0,-999.0,87,-99.99,,,0.00,weatherlink.com 1.10,2013-02-26 03:42:00,
2013-02-25 21:57:00,33.8,30.0,29.98,NNE,16,4.0,-999.0,86,-99.99,,,0.00,weatherlink.com 1.10,2013-02-26 03:57:00,
2013-02-25 22:12:00,33.7,30.0,29.98,NNE,17,3.0,-999.0,87,-99.99,,,0.00,weatherlink.com 1.10,2013-02-26 04:12:00,
2013-02-25 22:27:00,33.4,30.0,29.98,NNE,26,4.0,-999.0,88,-99.99,,,0.00,weatherlink.com 1.10,2013-02-26 04:27:00,
2013-02-25 22:43:00,33.3,30.0,29.98,NNE,28,3.0,-999.0,88,-99.99,,,0.00,weatherlink.com 1.10,2013-02-26 04:43:00,
2013-02-25 22:58:00,33.2,30.0,29.98,NE,40,2.0,-999.0,89,-99.99,,,0.00,weatherlink.com 1.10,2013-02-26 04:58:00,
2013-02-25 23:13:00,33.2,30.0,29.97,NE,41,3.0,-999.0,89,-99.99,,,0.00,weatherlink.com 1.10,2013-02-26 05:13:00,
2013-02-25 23:27:00,33.2,30.0,29.96,NE,41,0.0,-999.0,89,-99.99,,,0.00,weatherlink.com 1.10,2013-02-26 05:27:00,
2013-02-25 23:43:00,33.4,30.0,29.95,NE,41,1.0,-999.0,88,-99.99,,,0.00,weatherlink.com 1.10,2013-02-26 05:43:00,
2013-02-25 23:58:00,33.3,30.0,29.95,NNE,28,0.0,-999.0,88,-99.99,,,0.00,weatherlink.com 1.10,2013-02-26 05:58:00,